sensor_id;sensor_type;location;lat;lon;timestamp;noise_LAeq;noise_LA_min;noise_LA_max;noise_LA01;noise_LA95
66274;Laerm;58450;52.150;4.466;2022-12-18T00:01:24;40.80;36.98;49.55;;
66274;Laerm;58450;52.150;4.466;2022-12-18T00:03:54;42.05;37.40;50.85;;
66274;Laerm;58450;52.150;4.466;2022-12-18T00:06:23;40.93;37.01;57.59;;
66274;Laerm;58450;52.150;4.466;2022-12-18T00:08:51;40.72;36.64;51.96;;
66274;Laerm;58450;52.150;4.466;2022-12-18T00:11:22;41.13;36.97;57.49;;
66274;Laerm;58450;52.150;4.466;2022-12-18T00:13:51;41.52;37.49;50.99;;
66274;Laerm;58450;52.150;4.466;2022-12-18T00:16:22;41.41;37.19;67.59;;
66274;Laerm;58450;52.150;4.466;2022-12-18T00:18:53;41.96;36.23;59.11;;
66274;Laerm;58450;52.150;4.466;2022-12-18T00:21:21;42.44;37.22;58.57;;
66274;Laerm;58450;52.150;4.466;2022-12-18T00:23:50;42.10;36.56;57.29;;
66274;Laerm;58450;52.150;4.466;2022-12-18T00:26:20;41.07;36.36;54.19;;
66274;Laerm;58450;52.150;4.466;2022-12-18T00:28:49;40.20;36.73;56.23;;
66274;Laerm;58450;52.150;4.466;2022-12-18T00:31:22;39.92;36.14;48.97;;
66274;Laerm;58450;52.150;4.466;2022-12-18T00:33:50;39.84;36.14;45.65;;
66274;Laerm;58450;52.150;4.466;2022-12-18T00:36:21;44.97;35.92;67.78;;
66274;Laerm;58450;52.150;4.466;2022-12-18T00:38:49;43.61;37.74;62.01;;
66274;Laerm;58450;52.150;4.466;2022-12-18T00:41:18;42.80;36.73;55.79;;
66274;Laerm;58450;52.150;4.466;2022-12-18T00:44:08;39.96;36.64;49.85;;
66274;Laerm;58450;52.150;4.466;2022-12-18T00:46:37;41.29;36.99;53.09;;
66274;Laerm;58450;52.150;4.466;2022-12-18T00:49:05;43.78;36.83;57.89;;
66274;Laerm;58450;52.150;4.466;2022-12-18T00:51:33;39.49;36.21;45.03;;
66274;Laerm;58450;52.150;4.466;2022-12-18T00:54:01;44.54;36.11;66.95;;
66274;Laerm;58450;52.150;4.466;2022-12-18T00:56:28;39.11;35.65;42.75;;
66274;Laerm;58450;52.150;4.466;2022-12-18T00:58:56;39.73;36.22;46.44;;
66274;Laerm;58450;52.150;4.466;2022-12-18T01:01:23;39.52;36.28;44.38;;
66274;Laerm;58450;52.150;4.466;2022-12-18T01:03:52;40.27;36.53;46.54;;
66274;Laerm;58450;52.150;4.466;2022-12-18T01:06:20;40.09;36.30;53.25;;
66274;Laerm;58450;52.150;4.466;2022-12-18T01:08:47;41.63;35.77;59.37;;
66274;Laerm;58450;52.150;4.466;2022-12-18T01:11:18;41.54;36.49;65.35;;
66274;Laerm;58450;52.150;4.466;2022-12-18T01:13:46;41.00;36.84;56.43;;
66274;Laerm;58450;52.150;4.466;2022-12-18T01:16:16;39.37;35.26;49.82;;
66274;Laerm;58450;52.150;4.466;2022-12-18T01:18:44;40.80;36.06;59.05;;
66274;Laerm;58450;52.150;4.466;2022-12-18T01:21:15;39.97;35.54;54.94;;
66274;Laerm;58450;52.150;4.466;2022-12-18T01:23:44;40.62;36.33;52.49;;
66274;Laerm;58450;52.150;4.466;2022-12-18T01:26:14;40.32;35.94;53.79;;
66274;Laerm;58450;52.150;4.466;2022-12-18T01:28:43;39.54;36.06;43.71;;
66274;Laerm;58450;52.150;4.466;2022-12-18T01:31:20;39.93;36.53;47.47;;
66274;Laerm;58450;52.150;4.466;2022-12-18T01:33:48;40.21;35.83;54.17;;
66274;Laerm;58450;52.150;4.466;2022-12-18T01:36:19;40.73;35.94;57.17;;
66274;Laerm;58450;52.150;4.466;2022-12-18T01:38:48;42.88;36.41;60.45;;
66274;Laerm;58450;52.150;4.466;2022-12-18T01:41:19;39.82;35.73;45.73;;
66274;Laerm;58450;52.150;4.466;2022-12-18T01:43:52;41.26;35.92;57.63;;
66274;Laerm;58450;52.150;4.466;2022-12-18T01:46:22;39.21;35.89;45.10;;
66274;Laerm;58450;52.150;4.466;2022-12-18T01:48:56;39.18;35.74;48.02;;
66274;Laerm;58450;52.150;4.466;2022-12-18T01:51:27;39.86;35.78;56.29;;
66274;Laerm;58450;52.150;4.466;2022-12-18T01:53:57;43.48;36.41;59.94;;
66274;Laerm;58450;52.150;4.466;2022-12-18T01:56:26;39.27;36.26;43.55;;
66274;Laerm;58450;52.150;4.466;2022-12-18T01:59:00;40.97;36.53;59.62;;
66274;Laerm;58450;52.150;4.466;2022-12-18T02:01:31;42.60;36.18;62.38;;
66274;Laerm;58450;52.150;4.466;2022-12-18T02:04:20;42.32;35.61;66.90;;
66274;Laerm;58450;52.150;4.466;2022-12-18T02:06:56;39.55;35.95;49.47;;
66274;Laerm;58450;52.150;4.466;2022-12-18T02:09:34;39.27;35.79;45.52;;
66274;Laerm;58450;52.150;4.466;2022-12-18T02:12:16;39.07;36.08;46.13;;
66274;Laerm;58450;52.150;4.466;2022-12-18T02:14:55;41.32;36.02;61.19;;
66274;Laerm;58450;52.150;4.466;2022-12-18T02:17:34;39.68;36.22;46.58;;
66274;Laerm;58450;52.150;4.466;2022-12-18T02:20:15;40.40;36.16;59.53;;
66274;Laerm;58450;52.150;4.466;2022-12-18T02:23:04;40.34;35.96;56.04;;
66274;Laerm;58450;52.150;4.466;2022-12-18T02:26:09;42.54;36.16;60.27;;
66274;Laerm;58450;52.150;4.466;2022-12-18T02:28:45;42.34;36.70;58.32;;
66274;Laerm;58450;52.150;4.466;2022-12-18T02:31:19;40.67;36.57;55.45;;
66274;Laerm;58450;52.150;4.466;2022-12-18T02:33:50;40.82;36.79;56.16;;
66274;Laerm;58450;52.150;4.466;2022-12-18T02:36:20;39.50;36.13;45.15;;
66274;Laerm;58450;52.150;4.466;2022-12-18T02:38:52;39.70;36.06;52.08;;
66274;Laerm;58450;52.150;4.466;2022-12-18T02:41:22;39.89;36.35;52.75;;
66274;Laerm;58450;52.150;4.466;2022-12-18T02:43:57;39.47;36.31;47.42;;
66274;Laerm;58450;52.150;4.466;2022-12-18T02:46:32;40.79;35.93;60.75;;
66274;Laerm;58450;52.150;4.466;2022-12-18T02:49:14;39.21;36.32;43.96;;
66274;Laerm;58450;52.150;4.466;2022-12-18T02:51:50;39.29;36.08;51.19;;
66274;Laerm;58450;52.150;4.466;2022-12-18T02:54:34;39.85;35.84;46.82;;
66274;Laerm;58450;52.150;4.466;2022-12-18T02:57:14;39.29;36.30;43.86;;
66274;Laerm;58450;52.150;4.466;2022-12-18T02:59:56;39.72;35.39;51.36;;
66274;Laerm;58450;52.150;4.466;2022-12-18T03:02:33;39.94;36.47;55.69;;
66274;Laerm;58450;52.150;4.466;2022-12-18T03:05:08;40.59;34.87;58.07;;
66274;Laerm;58450;52.150;4.466;2022-12-18T03:07:43;39.24;36.07;47.79;;
66274;Laerm;58450;52.150;4.466;2022-12-18T03:10:26;39.22;35.56;44.44;;
66274;Laerm;58450;52.150;4.466;2022-12-18T03:13:04;44.07;36.25;66.60;;
66274;Laerm;58450;52.150;4.466;2022-12-18T03:15:37;44.58;36.60;64.39;;
66274;Laerm;58450;52.150;4.466;2022-12-18T03:18:12;39.74;35.72;49.17;;
66274;Laerm;58450;52.150;4.466;2022-12-18T03:20:45;41.02;36.52;54.17;;
66274;Laerm;58450;52.150;4.466;2022-12-18T03:23:18;39.77;36.65;51.83;;
66274;Laerm;58450;52.150;4.466;2022-12-18T03:25:51;40.44;36.47;54.87;;
66274;Laerm;58450;52.150;4.466;2022-12-18T03:28:22;39.55;36.70;44.78;;
66274;Laerm;58450;52.150;4.466;2022-12-18T03:30:56;39.75;36.69;45.74;;
66274;Laerm;58450;52.150;4.466;2022-12-18T03:33:30;39.93;36.85;59.94;;
66274;Laerm;58450;52.150;4.466;2022-12-18T03:36:00;40.46;36.51;60.15;;
66274;Laerm;58450;52.150;4.466;2022-12-18T03:38:28;41.71;36.83;60.44;;
66274;Laerm;58450;52.150;4.466;2022-12-18T03:41:05;39.58;35.93;51.31;;
66274;Laerm;58450;52.150;4.466;2022-12-18T03:43:47;40.10;36.04;56.37;;
66274;Laerm;58450;52.150;4.466;2022-12-18T03:46:27;39.08;35.71;44.76;;
66274;Laerm;58450;52.150;4.466;2022-12-18T03:49:06;39.38;35.77;47.20;;
66274;Laerm;58450;52.150;4.466;2022-12-18T03:51:43;40.02;36.62;45.80;;
66274;Laerm;58450;52.150;4.466;2022-12-18T03:54:11;39.36;36.59;42.64;;
66274;Laerm;58450;52.150;4.466;2022-12-18T03:56:45;41.17;36.51;62.36;;
66274;Laerm;58450;52.150;4.466;2022-12-18T03:59:18;39.16;35.67;43.03;;
66274;Laerm;58450;52.150;4.466;2022-12-18T04:01:51;39.76;36.73;42.81;;
66274;Laerm;58450;52.150;4.466;2022-12-18T04:04:21;39.80;36.80;43.33;;
66274;Laerm;58450;52.150;4.466;2022-12-18T04:06:50;40.15;36.21;53.92;;
66274;Laerm;58450;52.150;4.466;2022-12-18T04:09:20;39.75;36.61;49.60;;
66274;Laerm;58450;52.150;4.466;2022-12-18T04:11:48;39.96;36.17;57.13;;
66274;Laerm;58450;52.150;4.466;2022-12-18T04:14:17;40.11;36.34;60.17;;
66274;Laerm;58450;52.150;4.466;2022-12-18T04:16:44;39.50;36.82;43.03;;
66274;Laerm;58450;52.150;4.466;2022-12-18T04:19:12;39.67;36.72;43.09;;
66274;Laerm;58450;52.150;4.466;2022-12-18T04:21:39;40.66;36.77;53.84;;
66274;Laerm;58450;52.150;4.466;2022-12-18T04:24:07;41.91;37.60;55.87;;
66274;Laerm;58450;52.150;4.466;2022-12-18T04:26:35;40.24;36.78;51.92;;
66274;Laerm;58450;52.150;4.466;2022-12-18T04:29:02;41.07;37.38;50.19;;
66274;Laerm;58450;52.150;4.466;2022-12-18T04:31:31;41.22;36.65;50.62;;
66274;Laerm;58450;52.150;4.466;2022-12-18T04:33:59;39.91;36.83;44.56;;
66274;Laerm;58450;52.150;4.466;2022-12-18T04:36:27;39.86;36.40;58.22;;
66274;Laerm;58450;52.150;4.466;2022-12-18T04:38:54;39.51;36.47;43.85;;
66274;Laerm;58450;52.150;4.466;2022-12-18T04:41:22;39.54;36.47;46.58;;
66274;Laerm;58450;52.150;4.466;2022-12-18T04:43:49;40.91;36.72;57.50;;
66274;Laerm;58450;52.150;4.466;2022-12-18T04:46:17;40.28;36.45;59.50;;
66274;Laerm;58450;52.150;4.466;2022-12-18T04:48:46;39.96;36.71;47.29;;
66274;Laerm;58450;52.150;4.466;2022-12-18T04:51:14;39.55;36.22;44.20;;
66274;Laerm;58450;52.150;4.466;2022-12-18T04:53:42;40.03;36.33;46.90;;
66274;Laerm;58450;52.150;4.466;2022-12-18T04:56:12;43.36;36.47;58.50;;
66274;Laerm;58450;52.150;4.466;2022-12-18T04:58:43;41.50;37.23;56.02;;
66274;Laerm;58450;52.150;4.466;2022-12-18T05:01:13;40.58;36.99;55.75;;
66274;Laerm;58450;52.150;4.466;2022-12-18T05:03:41;39.92;37.11;46.69;;
66274;Laerm;58450;52.150;4.466;2022-12-18T05:06:10;41.04;37.16;59.21;;
66274;Laerm;58450;52.150;4.466;2022-12-18T05:08:38;40.46;36.32;58.26;;
66274;Laerm;58450;52.150;4.466;2022-12-18T05:11:08;40.48;36.13;53.52;;
66274;Laerm;58450;52.150;4.466;2022-12-18T05:13:36;40.59;36.87;45.03;;
66274;Laerm;58450;52.150;4.466;2022-12-18T05:16:06;39.74;36.75;44.94;;
66274;Laerm;58450;52.150;4.466;2022-12-18T05:18:34;39.66;36.70;47.42;;
66274;Laerm;58450;52.150;4.466;2022-12-18T05:21:02;40.59;36.75;52.24;;
66274;Laerm;58450;52.150;4.466;2022-12-18T05:23:31;40.12;37.49;43.82;;
66274;Laerm;58450;52.150;4.466;2022-12-18T05:26:02;41.24;37.12;54.57;;
66274;Laerm;58450;52.150;4.466;2022-12-18T05:28:32;42.63;37.32;56.72;;
66274;Laerm;58450;52.150;4.466;2022-12-18T05:31:02;42.93;37.09;59.19;;
66274;Laerm;58450;52.150;4.466;2022-12-18T05:33:33;41.86;37.81;51.97;;
66274;Laerm;58450;52.150;4.466;2022-12-18T05:36:04;45.26;38.45;57.69;;
66274;Laerm;58450;52.150;4.466;2022-12-18T05:38:36;41.78;37.62;54.93;;
66274;Laerm;58450;52.150;4.466;2022-12-18T05:41:05;41.61;38.02;48.18;;
66274;Laerm;58450;52.150;4.466;2022-12-18T05:43:35;41.81;37.87;46.15;;
66274;Laerm;58450;52.150;4.466;2022-12-18T05:46:04;41.95;38.16;54.43;;
66274;Laerm;58450;52.150;4.466;2022-12-18T05:48:33;41.60;37.61;48.59;;
66274;Laerm;58450;52.150;4.466;2022-12-18T05:51:06;41.46;37.77;47.18;;
66274;Laerm;58450;52.150;4.466;2022-12-18T05:53:37;42.50;38.39;54.82;;
66274;Laerm;58450;52.150;4.466;2022-12-18T05:56:07;42.73;38.12;53.92;;
66274;Laerm;58450;52.150;4.466;2022-12-18T05:58:35;42.20;38.02;48.32;;
66274;Laerm;58450;52.150;4.466;2022-12-18T06:01:09;43.04;38.78;56.94;;
66274;Laerm;58450;52.150;4.466;2022-12-18T06:03:37;41.77;37.90;51.30;;
66274;Laerm;58450;52.150;4.466;2022-12-18T06:06:14;42.63;38.52;52.65;;
66274;Laerm;58450;52.150;4.466;2022-12-18T06:08:43;42.96;37.77;55.96;;
66274;Laerm;58450;52.150;4.466;2022-12-18T06:11:11;41.76;37.88;52.48;;
66274;Laerm;58450;52.150;4.466;2022-12-18T06:13:39;44.35;38.59;56.60;;
66274;Laerm;58450;52.150;4.466;2022-12-18T06:16:08;45.78;38.00;63.68;;
66274;Laerm;58450;52.150;4.466;2022-12-18T06:18:37;42.09;36.90;59.37;;
66274;Laerm;58450;52.150;4.466;2022-12-18T06:21:05;42.90;38.05;60.09;;
66274;Laerm;58450;52.150;4.466;2022-12-18T06:23:33;42.07;37.13;55.75;;
66274;Laerm;58450;52.150;4.466;2022-12-18T06:26:05;41.46;37.23;52.07;;
66274;Laerm;58450;52.150;4.466;2022-12-18T06:28:33;41.73;37.60;51.11;;
66274;Laerm;58450;52.150;4.466;2022-12-18T06:31:03;42.65;37.71;56.80;;
66274;Laerm;58450;52.150;4.466;2022-12-18T06:33:31;42.95;37.08;61.88;;
66274;Laerm;58450;52.150;4.466;2022-12-18T06:36:01;44.19;37.86;55.83;;
66274;Laerm;58450;52.150;4.466;2022-12-18T06:38:31;41.52;37.79;48.16;;
66274;Laerm;58450;52.150;4.466;2022-12-18T06:40:58;43.01;37.80;55.17;;
66274;Laerm;58450;52.150;4.466;2022-12-18T06:43:27;45.23;38.88;58.86;;
66274;Laerm;58450;52.150;4.466;2022-12-18T06:45:59;46.24;37.87;59.95;;
66274;Laerm;58450;52.150;4.466;2022-12-18T06:48:26;45.87;37.68;61.91;;
66274;Laerm;58450;52.150;4.466;2022-12-18T06:50:54;42.67;38.84;49.51;;
66274;Laerm;58450;52.150;4.466;2022-12-18T06:53:22;42.54;37.79;53.57;;
66274;Laerm;58450;52.150;4.466;2022-12-18T06:55:50;47.09;38.22;66.49;;
66274;Laerm;58450;52.150;4.466;2022-12-18T06:58:17;45.24;39.08;64.21;;
66274;Laerm;58450;52.150;4.466;2022-12-18T07:00:46;44.15;38.90;61.96;;
66274;Laerm;58450;52.150;4.466;2022-12-18T07:03:14;45.99;37.71;64.83;;
66274;Laerm;58450;52.150;4.466;2022-12-18T07:05:41;42.34;37.27;53.57;;
66274;Laerm;58450;52.150;4.466;2022-12-18T07:08:09;42.32;38.07;55.25;;
66274;Laerm;58450;52.150;4.466;2022-12-18T07:10:41;43.25;38.78;55.28;;
66274;Laerm;58450;52.150;4.466;2022-12-18T07:13:09;48.58;38.13;65.90;;
66274;Laerm;58450;52.150;4.466;2022-12-18T07:15:37;48.97;38.76;69.85;;
66274;Laerm;58450;52.150;4.466;2022-12-18T07:18:06;44.44;38.22;56.52;;
66274;Laerm;58450;52.150;4.466;2022-12-18T07:20:33;44.44;39.89;62.97;;
66274;Laerm;58450;52.150;4.466;2022-12-18T07:23:02;44.35;39.32;57.48;;
66274;Laerm;58450;52.150;4.466;2022-12-18T07:25:29;47.44;39.88;66.89;;
66274;Laerm;58450;52.150;4.466;2022-12-18T07:27:57;44.89;39.29;62.29;;
66274;Laerm;58450;52.150;4.466;2022-12-18T07:30:24;47.08;39.82;62.30;;
66274;Laerm;58450;52.150;4.466;2022-12-18T07:32:52;48.71;39.82;68.03;;
66274;Laerm;58450;52.150;4.466;2022-12-18T07:35:21;46.74;40.07;60.36;;
66274;Laerm;58450;52.150;4.466;2022-12-18T07:37:48;45.91;39.86;60.48;;
66274;Laerm;58450;52.150;4.466;2022-12-18T07:40:16;44.40;39.95;56.77;;
66274;Laerm;58450;52.150;4.466;2022-12-18T07:42:43;46.64;39.96;62.02;;
66274;Laerm;58450;52.150;4.466;2022-12-18T07:45:11;47.83;39.58;68.68;;
66274;Laerm;58450;52.150;4.466;2022-12-18T07:47:38;47.54;39.43;66.18;;
66274;Laerm;58450;52.150;4.466;2022-12-18T07:50:08;47.22;40.65;63.57;;
66274;Laerm;58450;52.150;4.466;2022-12-18T07:52:37;45.07;40.36;64.38;;
66274;Laerm;58450;52.150;4.466;2022-12-18T07:55:05;45.94;40.17;58.46;;
66274;Laerm;58450;52.150;4.466;2022-12-18T07:57:33;46.87;40.57;63.38;;
66274;Laerm;58450;52.150;4.466;2022-12-18T08:00:00;44.83;40.27;59.25;;
66274;Laerm;58450;52.150;4.466;2022-12-18T08:02:30;43.43;39.88;53.61;;
66274;Laerm;58450;52.150;4.466;2022-12-18T08:04:58;45.23;39.07;66.78;;
66274;Laerm;58450;52.150;4.466;2022-12-18T08:07:25;44.22;39.48;53.86;;
66274;Laerm;58450;52.150;4.466;2022-12-18T08:09:54;44.24;40.45;60.61;;
66274;Laerm;58450;52.150;4.466;2022-12-18T08:12:22;45.34;40.50;57.30;;
66274;Laerm;58450;52.150;4.466;2022-12-18T08:14:50;46.57;40.34;63.01;;
66274;Laerm;58450;52.150;4.466;2022-12-18T08:17:19;44.79;40.58;54.17;;
66274;Laerm;58450;52.150;4.466;2022-12-18T08:19:47;45.98;41.09;58.72;;
66274;Laerm;58450;52.150;4.466;2022-12-18T08:22:14;44.41;40.62;52.42;;
66274;Laerm;58450;52.150;4.466;2022-12-18T08:24:42;44.32;40.63;51.94;;
66274;Laerm;58450;52.150;4.466;2022-12-18T08:27:11;44.64;40.56;59.92;;
66274;Laerm;58450;52.150;4.466;2022-12-18T08:29:38;44.97;40.47;58.22;;
66274;Laerm;58450;52.150;4.466;2022-12-18T08:32:06;47.17;39.98;71.58;;
66274;Laerm;58450;52.150;4.466;2022-12-18T08:34:34;43.99;39.64;53.62;;
66274;Laerm;58450;52.150;4.466;2022-12-18T08:37:01;45.24;40.51;56.65;;
66274;Laerm;58450;52.150;4.466;2022-12-18T08:39:29;44.93;39.75;57.27;;
66274;Laerm;58450;52.150;4.466;2022-12-18T08:41:57;44.98;40.74;59.64;;
66274;Laerm;58450;52.150;4.466;2022-12-18T08:44:43;46.12;40.82;58.55;;
66274;Laerm;58450;52.150;4.466;2022-12-18T08:47:11;47.13;42.12;59.19;;
66274;Laerm;58450;52.150;4.466;2022-12-18T08:49:38;47.26;41.90;57.68;;
66274;Laerm;58450;52.150;4.466;2022-12-18T08:52:06;47.14;41.94;59.56;;
66274;Laerm;58450;52.150;4.466;2022-12-18T08:54:34;46.44;41.71;55.28;;
66274;Laerm;58450;52.150;4.466;2022-12-18T08:57:01;45.11;41.07;52.98;;
66274;Laerm;58450;52.150;4.466;2022-12-18T08:59:29;45.33;41.16;56.26;;
66274;Laerm;58450;52.150;4.466;2022-12-18T09:01:58;45.78;41.06;58.85;;
66274;Laerm;58450;52.150;4.466;2022-12-18T09:04:25;46.64;41.39;62.89;;
66274;Laerm;58450;52.150;4.466;2022-12-18T09:06:55;45.84;41.63;54.63;;
66274;Laerm;58450;52.150;4.466;2022-12-18T09:09:23;46.10;42.11;55.96;;
66274;Laerm;58450;52.150;4.466;2022-12-18T09:11:50;46.31;41.78;58.31;;
66274;Laerm;58450;52.150;4.466;2022-12-18T09:14:18;47.58;42.47;63.57;;
66274;Laerm;58450;52.150;4.466;2022-12-18T09:16:45;48.63;42.32;72.55;;
66274;Laerm;58450;52.150;4.466;2022-12-18T09:19:14;46.27;41.90;55.16;;
66274;Laerm;58450;52.150;4.466;2022-12-18T09:21:42;46.84;42.21;61.37;;
66274;Laerm;58450;52.150;4.466;2022-12-18T09:24:13;48.74;41.90;68.53;;
66274;Laerm;58450;52.150;4.466;2022-12-18T09:26:41;47.09;41.79;60.55;;
66274;Laerm;58450;52.150;4.466;2022-12-18T09:29:08;46.53;41.72;57.47;;
66274;Laerm;58450;52.150;4.466;2022-12-18T09:31:38;47.44;41.78;64.06;;
66274;Laerm;58450;52.150;4.466;2022-12-18T09:34:05;47.06;41.90;61.74;;
66274;Laerm;58450;52.150;4.466;2022-12-18T09:36:34;46.60;42.44;57.47;;
66274;Laerm;58450;52.150;4.466;2022-12-18T09:39:03;46.49;41.89;58.12;;
66274;Laerm;58450;52.150;4.466;2022-12-18T09:41:45;47.22;42.35;55.38;;
66274;Laerm;58450;52.150;4.466;2022-12-18T09:44:26;47.13;42.43;54.66;;
66274;Laerm;58450;52.150;4.466;2022-12-18T09:47:09;47.40;42.80;60.50;;
66274;Laerm;58450;52.150;4.466;2022-12-18T09:49:43;48.85;43.55;63.91;;
66274;Laerm;58450;52.150;4.466;2022-12-18T09:52:20;48.68;43.39;62.98;;
66274;Laerm;58450;52.150;4.466;2022-12-18T09:54:54;46.97;42.63;54.29;;
66274;Laerm;58450;52.150;4.466;2022-12-18T09:57:24;49.17;43.04;66.76;;
66274;Laerm;58450;52.150;4.466;2022-12-18T09:59:57;48.58;43.96;63.21;;
66274;Laerm;58450;52.150;4.466;2022-12-18T10:02:30;46.93;42.11;64.97;;
66274;Laerm;58450;52.150;4.466;2022-12-18T10:05:09;46.63;42.66;58.68;;
66274;Laerm;58450;52.150;4.466;2022-12-18T10:07:53;46.78;42.58;51.62;;
66274;Laerm;58450;52.150;4.466;2022-12-18T10:10:37;46.90;42.99;57.09;;
66274;Laerm;58450;52.150;4.466;2022-12-18T10:13:31;48.84;43.05;63.75;;
66274;Laerm;58450;52.150;4.466;2022-12-18T10:16:17;46.48;42.83;54.26;;
66274;Laerm;58450;52.150;4.466;2022-12-18T10:19:09;47.15;42.26;55.85;;
66274;Laerm;58450;52.150;4.466;2022-12-18T10:21:51;48.63;42.51;70.69;;
66274;Laerm;58450;52.150;4.466;2022-12-18T10:24:33;46.70;42.09;59.88;;
66274;Laerm;58450;52.150;4.466;2022-12-18T10:27:13;50.43;42.38;73.33;;
66274;Laerm;58450;52.150;4.466;2022-12-18T10:29:42;48.30;42.52;68.29;;
66274;Laerm;58450;52.150;4.466;2022-12-18T10:32:16;47.59;42.82;63.11;;
66274;Laerm;58450;52.150;4.466;2022-12-18T10:34:47;48.67;42.35;63.69;;
66274;Laerm;58450;52.150;4.466;2022-12-18T10:37:18;49.03;42.73;66.53;;
66274;Laerm;58450;52.150;4.466;2022-12-18T10:40:08;47.46;42.71;61.19;;
66274;Laerm;58450;52.150;4.466;2022-12-18T10:42:38;48.41;43.05;68.96;;
66274;Laerm;58450;52.150;4.466;2022-12-18T10:45:15;48.93;43.66;62.35;;
66274;Laerm;58450;52.150;4.466;2022-12-18T10:47:44;48.29;43.12;62.47;;
66274;Laerm;58450;52.150;4.466;2022-12-18T10:50:25;49.66;43.22;72.08;;
66274;Laerm;58450;52.150;4.466;2022-12-18T10:52:57;47.38;43.36;53.52;;
66274;Laerm;58450;52.150;4.466;2022-12-18T10:55:32;47.92;43.46;54.01;;
66274;Laerm;58450;52.150;4.466;2022-12-18T10:58:21;48.49;43.69;67.58;;
66274;Laerm;58450;52.150;4.466;2022-12-18T11:01:06;47.30;43.36;61.96;;
66274;Laerm;58450;52.150;4.466;2022-12-18T11:03:37;47.79;44.01;58.37;;
66274;Laerm;58450;52.150;4.466;2022-12-18T11:06:09;47.89;43.35;59.30;;
66274;Laerm;58450;52.150;4.466;2022-12-18T11:08:38;49.01;42.52;62.23;;
66274;Laerm;58450;52.150;4.466;2022-12-18T11:11:19;47.53;43.54;53.82;;
66274;Laerm;58450;52.150;4.466;2022-12-18T11:14:01;49.12;43.17;63.11;;
66274;Laerm;58450;52.150;4.466;2022-12-18T11:16:33;47.38;43.29;65.17;;
66274;Laerm;58450;52.150;4.466;2022-12-18T11:19:28;47.73;43.30;57.36;;
66274;Laerm;58450;52.150;4.466;2022-12-18T11:21:57;47.45;43.36;53.72;;
66274;Laerm;58450;52.150;4.466;2022-12-18T11:24:29;47.28;43.45;58.74;;
66274;Laerm;58450;52.150;4.466;2022-12-18T11:27:01;47.45;43.40;54.01;;
66274;Laerm;58450;52.150;4.466;2022-12-18T11:29:36;47.93;43.78;55.60;;
66274;Laerm;58450;52.150;4.466;2022-12-18T11:32:32;48.93;43.48;66.85;;
66274;Laerm;58450;52.150;4.466;2022-12-18T11:35:15;47.27;43.28;52.97;;
66274;Laerm;58450;52.150;4.466;2022-12-18T11:37:53;47.37;42.84;56.12;;
66274;Laerm;58450;52.150;4.466;2022-12-18T11:40:31;47.75;43.13;58.24;;
66274;Laerm;58450;52.150;4.466;2022-12-18T11:43:10;49.09;43.46;64.92;;
66274;Laerm;58450;52.150;4.466;2022-12-18T11:45:48;47.64;43.11;60.38;;
66274;Laerm;58450;52.150;4.466;2022-12-18T11:48:22;49.33;43.51;72.32;;
66274;Laerm;58450;52.150;4.466;2022-12-18T11:50:54;48.79;43.96;64.10;;
66274;Laerm;58450;52.150;4.466;2022-12-18T11:53:25;49.28;44.09;63.50;;
66274;Laerm;58450;52.150;4.466;2022-12-18T11:56:19;47.85;43.66;57.65;;
66274;Laerm;58450;52.150;4.466;2022-12-18T11:59:06;48.23;43.54;63.37;;
66274;Laerm;58450;52.150;4.466;2022-12-18T12:01:48;47.63;43.16;62.20;;
66274;Laerm;58450;52.150;4.466;2022-12-18T12:04:46;47.19;42.90;56.32;;
66274;Laerm;58450;52.150;4.466;2022-12-18T12:07:36;48.01;43.78;54.38;;
66274;Laerm;58450;52.150;4.466;2022-12-18T12:10:26;47.92;43.73;59.16;;
66274;Laerm;58450;52.150;4.466;2022-12-18T12:13:16;48.24;43.82;62.78;;
66274;Laerm;58450;52.150;4.466;2022-12-18T12:16:04;49.35;43.68;70.84;;
66274;Laerm;58450;52.150;4.466;2022-12-18T12:18:52;48.63;44.25;60.12;;
66274;Laerm;58450;52.150;4.466;2022-12-18T12:21:36;49.46;43.60;68.79;;
66274;Laerm;58450;52.150;4.466;2022-12-18T12:24:27;49.16;43.69;63.95;;
66274;Laerm;58450;52.150;4.466;2022-12-18T12:27:15;47.78;43.65;53.45;;
66274;Laerm;58450;52.150;4.466;2022-12-18T12:30:00;52.55;43.47;66.89;;
66274;Laerm;58450;52.150;4.466;2022-12-18T12:32:52;48.22;43.96;64.77;;
66274;Laerm;58450;52.150;4.466;2022-12-18T12:35:35;49.04;43.61;66.47;;
66274;Laerm;58450;52.150;4.466;2022-12-18T12:38:11;48.70;43.83;75.66;;
66274;Laerm;58450;52.150;4.466;2022-12-18T12:40:46;48.06;43.85;64.12;;
66274;Laerm;58450;52.150;4.466;2022-12-18T12:43:28;49.63;43.69;65.22;;
66274;Laerm;58450;52.150;4.466;2022-12-18T12:46:04;51.19;43.94;68.91;;
66274;Laerm;58450;52.150;4.466;2022-12-18T12:48:41;49.45;43.14;64.00;;
66274;Laerm;58450;52.150;4.466;2022-12-18T12:51:17;49.45;43.33;69.50;;
66274;Laerm;58450;52.150;4.466;2022-12-18T12:53:48;51.69;43.83;76.15;;
66274;Laerm;58450;52.150;4.466;2022-12-18T12:56:19;48.19;42.82;68.80;;
66274;Laerm;58450;52.150;4.466;2022-12-18T12:58:59;48.10;43.57;58.40;;
66274;Laerm;58450;52.150;4.466;2022-12-18T13:01:37;48.37;43.13;62.51;;
66274;Laerm;58450;52.150;4.466;2022-12-18T13:04:21;48.38;43.06;65.95;;
66274;Laerm;58450;52.150;4.466;2022-12-18T13:07:03;50.00;43.46;76.65;;
66274;Laerm;58450;52.150;4.466;2022-12-18T13:09:32;47.14;43.26;60.47;;
66274;Laerm;58450;52.150;4.466;2022-12-18T13:12:03;47.83;42.86;70.68;;
66274;Laerm;58450;52.150;4.466;2022-12-18T13:14:49;50.89;42.08;77.53;;
66274;Laerm;58450;52.150;4.466;2022-12-18T13:17:28;49.16;42.73;72.20;;
66274;Laerm;58450;52.150;4.466;2022-12-18T13:20:09;49.67;43.52;72.85;;
66274;Laerm;58450;52.150;4.466;2022-12-18T13:22:41;47.97;43.45;59.51;;
66274;Laerm;58450;52.150;4.466;2022-12-18T13:25:42;47.04;42.54;56.47;;
66274;Laerm;58450;52.150;4.466;2022-12-18T13:28:12;47.65;42.81;61.31;;
66274;Laerm;58450;52.150;4.466;2022-12-18T13:30:54;47.68;42.99;62.78;;
66274;Laerm;58450;52.150;4.466;2022-12-18T13:33:49;46.78;43.02;58.65;;
66274;Laerm;58450;52.150;4.466;2022-12-18T13:36:31;47.71;43.27;58.14;;
66274;Laerm;58450;52.150;4.466;2022-12-18T13:39:32;47.38;43.50;63.27;;
66274;Laerm;58450;52.150;4.466;2022-12-18T13:42:39;48.64;43.13;64.70;;
66274;Laerm;58450;52.150;4.466;2022-12-18T13:45:45;47.98;43.20;64.38;;
66274;Laerm;58450;52.150;4.466;2022-12-18T13:48:22;48.14;43.41;59.87;;
66274;Laerm;58450;52.150;4.466;2022-12-18T13:50:59;47.77;43.46;63.39;;
66274;Laerm;58450;52.150;4.466;2022-12-18T13:53:35;48.27;43.37;60.26;;
66274;Laerm;58450;52.150;4.466;2022-12-18T13:56:05;48.08;42.92;60.05;;
66274;Laerm;58450;52.150;4.466;2022-12-18T13:58:33;47.79;43.61;54.26;;
66274;Laerm;58450;52.150;4.466;2022-12-18T14:01:00;47.63;42.62;65.29;;
66274;Laerm;58450;52.150;4.466;2022-12-18T14:03:30;47.86;43.72;58.93;;
66274;Laerm;58450;52.150;4.466;2022-12-18T14:06:03;51.96;43.75;79.13;;
66274;Laerm;58450;52.150;4.466;2022-12-18T14:08:39;50.12;43.06;74.57;;
66274;Laerm;58450;52.150;4.466;2022-12-18T14:11:19;47.77;43.73;57.43;;
66274;Laerm;58450;52.150;4.466;2022-12-18T14:13:49;48.59;43.09;59.38;;
66274;Laerm;58450;52.150;4.466;2022-12-18T14:16:17;47.47;43.13;58.20;;
66274;Laerm;58450;52.150;4.466;2022-12-18T14:18:48;48.77;43.15;62.01;;